Time;durP1;ratioP1;P1;durP2;ratioP2;P2;SDS_P1;SDS_P2;PMS_P1;PMS_P2;Temp;Humidity;BMP_temperature;BMP_pressure;BME280_temperature;BME280_humidity;BME280_pressure;Samples;Min_cycle;Max_cycle;Signal;HPM_P1;HPM_P2
2023/03/06 00:01:47;;;;;;;;;;;;;;;4.85;74.70;99016.16;5074311;28;1947;-57
2023/03/06 00:04:14;;;;;;;;;;;;;;;4.77;75.34;99013.75;5074123;28;895;-57
2023/03/06 00:06:40;;;;;;;;;;;;;;;4.93;74.85;99038.06;5073983;28;921;-56
2023/03/06 00:09:08;;;;;;;;;;;;;;;4.81;75.35;99042.72;5074174;28;1174;-56
2023/03/06 00:11:35;;;;;;;;;;;;;;;4.72;75.77;99050.50;5073902;28;900;-57
2023/03/06 00:14:01;;;;;;;;;;;;;;;4.61;76.49;99055.91;5074254;28;848;-56
2023/03/06 00:16:28;;;;;;;;;;;;;;;4.68;76.75;99068.84;5073835;28;820;-56
2023/03/06 00:18:54;;;;;;;;;;;;;;;4.62;77.45;99078.56;5073830;28;934;-56
2023/03/06 00:21:21;;;;;;;;;;;;;;;4.42;78.51;99069.81;5073714;28;1971;-56
2023/03/06 00:23:47;;;;;;;;;;;;;;;4.35;78.48;99088.91;5073858;28;828;-59
2023/03/06 00:26:13;;;;;;;;;;;;;;;4.46;77.86;99087.84;5073637;28;816;-56
2023/03/06 00:28:39;;;;;;;;;;;;;;;4.61;77.32;99083.25;5073958;28;907;-56
2023/03/06 00:31:05;;;;;;;;;;;;;;;4.71;76.50;99095.44;5073661;28;827;-57
2023/03/06 00:33:32;;;;;;;;;;;;;;;4.72;76.59;99099.75;5073530;28;824;-57
2023/03/06 00:35:59;;;;;;;;;;;;;;;4.78;76.56;99086.50;5073572;28;816;-56
2023/03/06 00:38:27;;;;;;;;;;;;;;;4.83;76.89;99083.41;5055498;28;864;-56
2023/03/06 00:40:53;;;;;;;;;;;;;;;4.75;77.13;99100.94;5073487;28;918;-56
2023/03/06 00:43:20;;;;;;;;;;;;;;;4.66;78.24;99095.81;5073290;28;1889;-56
2023/03/06 00:45:46;;;;;;;;;;;;;;;4.52;78.70;99098.44;5073360;28;890;-56
2023/03/06 00:48:13;;;;;;;;;;;;;;;4.49;78.57;99097.25;5073460;28;941;-56
2023/03/06 00:50:39;;;;;;;;;;;;;;;4.48;78.90;99081.97;5073247;28;849;-56
2023/03/06 00:53:06;;;;;;;;;;;;;;;4.68;77.81;99091.53;5073267;28;831;-56
2023/03/06 00:55:33;;;;;;;;;;;;;;;4.69;78.21;99092.28;5073060;28;844;-56
2023/03/06 00:57:59;;;;;;;;;;;;;;;4.48;79.59;99090.19;5073210;28;836;-56
2023/03/06 01:00:25;;;;;;;;;;;;;;;4.59;78.99;99095.75;5073153;28;840;-56
2023/03/06 01:02:52;;;;;;;;;;;;;;;4.49;79.60;99086.28;5073102;28;1941;-56
2023/03/06 01:05:19;;;;;;;;;;;;;;;4.51;79.48;99094.91;5073327;28;831;-56
2023/03/06 01:07:46;;;;;;;;;;;;;;;4.59;79.92;99095.75;5073088;28;1125;-56
2023/03/06 01:10:12;;;;;;;;;;;;;;;4.62;79.83;99101.25;5051641;28;1384;-56
2023/03/06 01:12:39;;;;;;;;;;;;;;;4.47;80.51;99094.88;5053165;28;812;-56
2023/03/06 01:15:13;;;;;;;;;;;;;;;4.32;82.64;99093.19;5052528;28;867;-56
2023/03/06 01:17:40;;;;;;;;;;;;;;;4.30;82.50;99093.56;5052801;28;804;-56
2023/03/06 01:20:07;;;;;;;;;;;;;;;4.46;81.79;99098.00;5052742;28;902;-56
2023/03/06 01:22:34;;;;;;;;;;;;;;;4.50;81.15;99104.28;5052663;28;1918;-56
2023/03/06 01:25:01;;;;;;;;;;;;;;;4.52;80.84;99091.00;5052482;28;874;-56
2023/03/06 01:27:27;;;;;;;;;;;;;;;4.53;80.92;99081.63;5052650;28;863;-56
2023/03/06 01:29:54;;;;;;;;;;;;;;;4.62;80.51;99092.25;5051230;28;1323;-56
2023/03/06 01:32:20;;;;;;;;;;;;;;;4.60;80.97;99097.31;5052492;28;879;-56
2023/03/06 01:34:47;;;;;;;;;;;;;;;4.62;80.65;99079.34;5052432;28;807;-56
2023/03/06 01:37:13;;;;;;;;;;;;;;;4.63;80.01;99066.44;5052465;28;827;-56
2023/03/06 01:39:40;;;;;;;;;;;;;;;4.71;79.67;99084.50;5052280;28;837;-56
2023/03/06 01:42:06;;;;;;;;;;;;;;;4.63;80.34;99075.47;5052299;28;1889;-56
2023/03/06 01:44:32;;;;;;;;;;;;;;;4.60;80.12;99095.38;5052222;28;851;-56
2023/03/06 01:47:01;;;;;;;;;;;;;;;4.57;80.64;99084.41;5052224;28;874;-56
2023/03/06 01:49:38;;;;;;;;;;;;;;;4.61;80.01;99102.41;5052191;28;831;-56
2023/03/06 01:52:13;;;;;;;;;;;;;;;4.75;79.02;99090.00;5052142;28;812;-57
2023/03/06 01:54:40;;;;;;;;;;;;;;;4.87;78.07;99095.97;5052094;28;846;-56
2023/03/06 01:57:18;;;;;;;;;;;;;;;4.93;77.92;99107.34;5052238;28;792;-56
2023/03/06 01:59:47;;;;;;;;;;;;;;;4.86;78.32;99099.84;5051986;28;820;-56
2023/03/06 02:02:14;;;;;;;;;;;;;;;4.87;77.67;99097.91;5051855;28;1911;-56
2023/03/06 02:04:42;;;;;;;;;;;;;;;4.85;77.99;99105.72;5051956;28;828;-57
2023/03/06 02:07:09;;;;;;;;;;;;;;;4.82;77.54;99101.00;5051803;28;827;-56
2023/03/06 02:09:37;;;;;;;;;;;;;;;4.82;77.93;99109.19;5055702;28;1225;-57
2023/03/06 02:12:08;;;;;;;;;;;;;;;4.75;77.69;99115.41;5071757;28;1091;-56
2023/03/06 02:14:34;;;;;;;;;;;;;;;4.83;77.29;99080.66;5071969;28;808;-57
2023/03/06 02:17:01;;;;;;;;;;;;;;;4.92;77.19;99100.28;5071721;28;832;-56
2023/03/06 02:19:27;;;;;;;;;;;;;;;4.87;77.24;99112.38;5071667;28;848;-57
2023/03/06 02:21:54;;;;;;;;;;;;;;;4.94;76.22;99119.09;5053557;28;1970;-57
2023/03/06 02:24:42;;;;;;;;;;;;;;;4.95;76.05;99121.44;5071538;28;871;-57
2023/03/06 02:27:11;;;;;;;;;;;;;;;4.86;76.88;99129.19;5070652;28;872;-57
2023/03/06 02:29:37;;;;;;;;;;;;;;;4.81;77.45;99151.47;5072127;28;830;-56
2023/03/06 02:32:04;;;;;;;;;;;;;;;4.70;77.85;99171.31;5071451;28;820;-56
2023/03/06 02:34:40;;;;;;;;;;;;;;;4.59;78.90;99167.72;5071521;28;835;-56
2023/03/06 02:37:07;;;;;;;;;;;;;;;4.52;78.37;99177.78;5071368;28;883;-56
2023/03/06 02:39:37;;;;;;;;;;;;;;;4.30;80.61;99181.09;5071636;28;871;-56
2023/03/06 02:42:03;;;;;;;;;;;;;;;4.20;81.20;99189.97;5071478;28;1890;-56
2023/03/06 02:44:31;;;;;;;;;;;;;;;4.19;80.96;99190.38;5071403;28;881;-56
2023/03/06 02:46:58;;;;;;;;;;;;;;;4.19;81.53;99193.88;5071411;28;805;-56
2023/03/06 02:49:24;;;;;;;;;;;;;;;4.21;82.24;99191.56;5071303;28;875;-56
2023/03/06 02:51:50;;;;;;;;;;;;;;;4.26;81.87;99198.63;5071242;28;898;-56
2023/03/06 02:54:17;;;;;;;;;;;;;;;4.34;82.38;99213.19;5071425;28;820;-56
2023/03/06 02:56:44;;;;;;;;;;;;;;;4.44;82.00;99198.84;5071270;28;860;-56
2023/03/06 02:59:10;;;;;;;;;;;;;;;4.46;81.56;99208.25;5071281;28;866;-56
2023/03/06 03:01:37;;;;;;;;;;;;;;;4.47;81.88;99198.84;5071462;28;1889;-56
2023/03/06 03:04:04;;;;;;;;;;;;;;;4.50;81.93;99202.78;5071165;28;918;-56
2023/03/06 03:06:31;;;;;;;;;;;;;;;4.53;81.68;99210.25;5071365;28;887;-56
2023/03/06 03:08:58;;;;;;;;;;;;;;;4.59;80.89;99210.72;5071038;28;1043;-56
2023/03/06 03:11:24;;;;;;;;;;;;;;;4.58;80.60;99209.91;5071000;28;1441;-56
2023/03/06 03:13:50;;;;;;;;;;;;;;;4.55;81.42;99205.19;5071040;28;871;-56
2023/03/06 03:16:17;;;;;;;;;;;;;;;4.52;82.33;99208.69;5071190;28;895;-56
2023/03/06 03:18:46;;;;;;;;;;;;;;;4.51;82.01;99204.38;5071067;28;906;-57
2023/03/06 03:21:13;;;;;;;;;;;;;;;4.55;81.76;99207.94;5070778;28;1941;-56
2023/03/06 03:23:40;;;;;;;;;;;;;;;4.64;80.91;99208.41;5071066;28;863;-56
2023/03/06 03:26:14;;;;;;;;;;;;;;;4.69;80.09;99212.75;5070951;28;867;-56
2023/03/06 03:28:39;;;;;;;;;;;;;;;4.67;80.53;99221.34;5071033;28;875;-56
2023/03/06 03:31:07;;;;;;;;;;;;;;;4.66;81.48;99217.03;5070871;28;907;-56
2023/03/06 03:33:34;;;;;;;;;;;;;;;4.62;81.13;99220.91;5070940;28;875;-56
2023/03/06 03:36:02;;;;;;;;;;;;;;;4.62;80.06;99224.41;5070851;28;857;-57
2023/03/06 03:38:29;;;;;;;;;;;;;;;4.63;79.25;99220.53;5073785;28;836;-56
2023/03/06 03:40:55;;;;;;;;;;;;;;;4.64;80.05;99221.31;5074566;28;883;-56
2023/03/06 03:43:23;;;;;;;;;;;;;;;4.67;80.16;99215.88;5074438;28;1871;-56
2023/03/06 03:45:51;;;;;;;;;;;;;;;4.74;80.13;99214.34;5074650;28;827;-56
2023/03/06 03:48:17;;;;;;;;;;;;;;;4.73;80.50;99223.75;5074379;28;922;-56
2023/03/06 03:50:44;;;;;;;;;;;;;;;4.73;79.93;99224.53;5056385;28;1156;-56
2023/03/06 03:53:10;;;;;;;;;;;;;;;4.83;78.19;99234.00;5074651;28;812;-56
2023/03/06 03:55:37;;;;;;;;;;;;;;;4.96;76.65;99237.25;5074258;28;828;-56
2023/03/06 03:58:04;;;;;;;;;;;;;;;5.00;76.15;99235.34;5074239;28;875;-57
2023/03/06 04:00:30;;;;;;;;;;;;;;;5.02;76.01;99241.22;5074241;28;811;-56
2023/03/06 04:02:57;;;;;;;;;;;;;;;5.04;72.60;99241.63;5074061;28;1947;-56
2023/03/06 04:05:24;;;;;;;;;;;;;;;5.00;72.54;99251.75;5074176;28;887;-57
2023/03/06 04:07:50;;;;;;;;;;;;;;;4.91;72.75;99250.13;5074048;28;997;-56
2023/03/06 04:10:16;;;;;;;;;;;;;;;4.81;73.52;99256.28;5073703;28;1372;-56
2023/03/06 04:12:43;;;;;;;;;;;;;;;4.70;74.34;99250.69;5056019;28;885;-56
2023/03/06 04:15:09;;;;;;;;;;;;;;;4.60;75.83;99248.66;5073949;28;875;-56
2023/03/06 04:17:36;;;;;;;;;;;;;;;4.47;76.29;99245.38;5074211;28;855;-56
2023/03/06 04:20:03;;;;;;;;;;;;;;;4.33;78.27;99244.44;5073730;28;825;-56
2023/03/06 04:22:30;;;;;;;;;;;;;;;4.20;78.34;99254.84;5073775;28;1979;-57
2023/03/06 04:24:56;;;;;;;;;;;;;;;4.13;79.12;99260.25;5073764;28;836;-56
2023/03/06 04:27:23;;;;;;;;;;;;;;;4.07;78.89;99262.50;5073907;28;835;-56
2023/03/06 04:29:50;;;;;;;;;;;;;;;4.01;79.04;99262.06;5073728;28;931;-56
2023/03/06 04:32:17;;;;;;;;;;;;;;;3.88;79.70;99264.25;5073663;28;883;-56
2023/03/06 04:34:43;;;;;;;;;;;;;;;3.76;80.50;99256.25;5073636;28;839;-56
2023/03/06 04:37:19;;;;;;;;;;;;;;;3.68;81.17;99260.81;5073584;28;894;-56
2023/03/06 04:39:46;;;;;;;;;;;;;;;3.71;81.52;99259.28;5073566;28;816;-56
2023/03/06 04:42:13;;;;;;;;;;;;;;;3.67;81.42;99272.94;5073370;28;1893;-56
2023/03/06 04:44:39;;;;;;;;;;;;;;;3.62;81.89;99275.97;5073481;28;812;-56
2023/03/06 04:47:06;;;;;;;;;;;;;;;3.55;82.63;99273.13;5073355;28;915;-59
2023/03/06 04:49:33;;;;;;;;;;;;;;;3.55;83.04;99266.88;5072320;28;874;-59
2023/03/06 04:52:00;;;;;;;;;;;;;;;3.62;82.61;99272.44;5073408;28;823;-59
2023/03/06 04:54:26;;;;;;;;;;;;;;;3.67;82.95;99280.34;5073395;28;852;-56
2023/03/06 04:56:53;;;;;;;;;;;;;;;3.67;82.98;99274.88;5073156;28;914;-56
2023/03/06 04:59:20;;;;;;;;;;;;;;;3.62;83.70;99286.13;5073139;28;804;-57
2023/03/06 05:01:46;;;;;;;;;;;;;;;3.57;84.99;99281.75;5073020;28;1893;-57
2023/03/06 05:04:12;;;;;;;;;;;;;;;3.54;85.10;99279.78;5073027;28;874;-57
2023/03/06 05:06:39;;;;;;;;;;;;;;;3.51;86.53;99282.44;5072993;28;857;-56
2023/03/06 05:09:06;;;;;;;;;;;;;;;3.43;87.13;99285.03;5073167;28;945;-57
2023/03/06 05:11:32;;;;;;;;;;;;;;;3.38;87.56;99284.59;5072784;28;1413;-56
2023/03/06 05:13:59;;;;;;;;;;;;;;;3.36;87.72;99281.44;5072824;28;887;-56
2023/03/06 05:16:25;;;;;;;;;;;;;;;3.38;87.39;99288.09;5072776;28;832;-56
2023/03/06 05:18:52;;;;;;;;;;;;;;;3.38;88.34;99295.50;5072665;28;872;-56
2023/03/06 05:21:19;;;;;;;;;;;;;;;3.41;88.37;99297.50;5072480;28;1921;-56
2023/03/06 05:23:46;;;;;;;;;;;;;;;3.52;87.25;99297.66;5072593;28;905;-56
2023/03/06 05:26:13;;;;;;;;;;;;;;;3.65;86.94;99310.00;5072585;28;800;-56
2023/03/06 05:28:40;;;;;;;;;;;;;;;3.76;86.26;99305.47;5072495;28;824;-56
2023/03/06 05:31:07;;;;;;;;;;;;;;;3.81;86.47;99307.09;5072561;28;832;-56
2023/03/06 05:33:34;;;;;;;;;;;;;;;3.79;87.06;99301.19;5072366;28;986;-56
2023/03/06 05:36:01;;;;;;;;;;;;;;;3.77;87.56;99301.56;5072341;28;816;-56
2023/03/06 05:38:28;;;;;;;;;;;;;;;3.82;87.73;99309.47;5072365;28;890;-56
2023/03/06 05:40:54;;;;;;;;;;;;;;;3.99;87.97;99310.06;5072197;28;934;-57
2023/03/06 05:43:21;;;;;;;;;;;;;;;4.17;87.26;99313.81;5072213;28;1941;-56
2023/03/06 05:45:49;;;;;;;;;;;;;;;4.38;86.69;99316.03;5072170;28;886;-56
2023/03/06 05:48:15;;;;;;;;;;;;;;;4.59;86.22;99318.25;5072082;28;855;-56
2023/03/06 05:50:41;;;;;;;;;;;;;;;4.84;85.02;99329.47;5072057;28;845;-57
2023/03/06 05:53:08;;;;;;;;;;;;;;;5.01;83.63;99330.03;5072039;28;848;-56
2023/03/06 05:55:34;;;;;;;;;;;;;;;5.11;81.53;99338.34;5071938;28;864;-57
2023/03/06 05:58:01;;;;;;;;;;;;;;;5.13;80.54;99337.19;5071933;28;844;-56
2023/03/06 06:00:27;;;;;;;;;;;;;;;5.16;79.65;99337.19;5071813;28;847;-56
2023/03/06 06:02:54;;;;;;;;;;;;;;;5.26;78.82;99330.25;5071786;28;1941;-56
2023/03/06 06:05:20;;;;;;;;;;;;;;;5.34;78.10;99331.13;5071921;28;883;-56
2023/03/06 06:07:46;;;;;;;;;;;;;;;5.47;77.17;99324.94;5071775;28;961;-57
2023/03/06 06:10:14;;;;;;;;;;;;;;;5.57;76.47;99331.69;5071466;28;1362;-57
2023/03/06 06:12:40;;;;;;;;;;;;;;;5.61;76.00;99334.44;5071706;28;923;-57
2023/03/06 06:15:07;;;;;;;;;;;;;;;5.64;75.37;99344.66;5071743;28;832;-57
2023/03/06 06:17:33;;;;;;;;;;;;;;;5.72;74.77;99349.03;5071642;28;879;-57
2023/03/06 06:20:00;;;;;;;;;;;;;;;5.90;74.36;99352.69;5071682;28;871;-57
2023/03/06 06:22:26;;;;;;;;;;;;;;;6.09;73.91;99348.91;5071532;28;1910;-57
2023/03/06 06:24:53;;;;;;;;;;;;;;;6.30;73.21;99352.97;5071619;28;877;-56
2023/03/06 06:27:19;;;;;;;;;;;;;;;6.44;72.43;99357.72;5053672;28;1180;-57
2023/03/06 06:29:48;;;;;;;;;;;;;;;6.47;72.38;99356.97;5071708;28;872;-56
2023/03/06 06:32:15;;;;;;;;;;;;;;;6.49;71.85;99360.09;5071457;28;839;-56
2023/03/06 06:34:41;;;;;;;;;;;;;;;6.49;72.94;99360.88;5071499;28;864;-56
2023/03/06 06:37:08;;;;;;;;;;;;;;;6.48;72.62;99361.25;5071502;28;816;-56
2023/03/06 06:39:34;;;;;;;;;;;;;;;6.45;72.46;99367.53;5071447;28;842;-56
2023/03/06 06:42:01;;;;;;;;;;;;;;;6.53;72.73;99358.16;5071519;28;1963;-56
2023/03/06 06:44:27;;;;;;;;;;;;;;;6.47;73.02;99363.22;5071542;28;879;-56
2023/03/06 06:46:53;;;;;;;;;;;;;;;6.43;72.41;99375.38;5071672;28;898;-56
2023/03/06 06:49:20;;;;;;;;;;;;;;;6.44;72.67;99377.72;5071398;28;847;-56
2023/03/06 06:51:47;;;;;;;;;;;;;;;6.92;73.33;99371.25;5071976;28;828;-56
2023/03/06 06:54:14;;;;;;;;;;;;;;;6.99;70.36;99376.75;5071824;28;883;-56
2023/03/06 06:56:41;;;;;;;;;;;;;;;6.65;70.62;99379.00;5071617;28;823;-56
2023/03/06 06:59:07;;;;;;;;;;;;;;;6.51;70.65;99376.97;5071590;28;891;-56
2023/03/06 07:01:33;;;;;;;;;;;;;;;6.36;71.33;99389.84;5053082;28;1941;-56
2023/03/06 07:03:59;;;;;;;;;;;;;;;6.46;72.44;99396.56;5071391;28;879;-56
2023/03/06 07:06:26;;;;;;;;;;;;;;;6.61;71.54;99389.94;5071345;28;875;-56
2023/03/06 07:08:52;;;;;;;;;;;;;;;6.64;72.22;99400.19;5071372;28;1051;-56
2023/03/06 07:11:19;;;;;;;;;;;;;;;6.88;71.85;99392.44;5049623;28;1278;-56
2023/03/06 07:13:46;;;;;;;;;;;;;;;7.08;70.98;99393.69;5053470;28;1311;-56
2023/03/06 07:16:13;;;;;;;;;;;;;;;7.42;70.95;99398.03;5055089;28;820;-56
2023/03/06 07:18:40;;;;;;;;;;;;;;;7.27;70.33;99394.47;5054948;28;812;-56
2023/03/06 07:21:07;;;;;;;;;;;;;;;7.54;69.92;99392.16;5054925;28;946;-56
2023/03/06 07:23:33;;;;;;;;;;;;;;;7.45;69.22;99411.03;5054921;28;1922;-56
2023/03/06 07:26:00;;;;;;;;;;;;;;;7.89;68.60;99412.59;5054882;28;844;-56
2023/03/06 07:28:27;;;;;;;;;;;;;;;8.52;64.81;99412.94;5054891;28;871;-56
2023/03/06 07:30:53;;;;;;;;;;;;;;;9.03;63.27;99410.78;5054790;28;863;-56
2023/03/06 07:33:19;;;;;;;;;;;;;;;9.19;62.27;99409.09;5054786;28;823;-56
2023/03/06 07:35:46;;;;;;;;;;;;;;;9.25;61.86;99417.75;5054698;28;888;-56
2023/03/06 07:38:13;;;;;;;;;;;;;;;9.14;60.27;99412.28;5054724;28;915;-56
2023/03/06 07:40:39;;;;;;;;;;;;;;;9.51;60.93;99418.38;5054676;28;898;-56
2023/03/06 07:43:06;;;;;;;;;;;;;;;10.09;59.47;99413.97;5053193;28;1897;-55
2023/03/06 07:45:33;;;;;;;;;;;;;;;10.55;57.17;99421.03;5054577;28;920;-56
2023/03/06 07:47:59;;;;;;;;;;;;;;;10.49;56.99;99413.59;5054700;28;867;-55
2023/03/06 07:50:27;;;;;;;;;;;;;;;9.65;58.80;99421.03;5054506;28;812;-55
2023/03/06 07:52:53;;;;;;;;;;;;;;;9.77;59.79;99411.47;5054456;28;853;-55
2023/03/06 07:55:21;;;;;;;;;;;;;;;10.22;57.99;99417.78;5054404;28;804;-55
2023/03/06 07:57:49;;;;;;;;;;;;;;;10.56;56.76;99417.09;5052998;28;2083;-55
2023/03/06 08:00:16;;;;;;;;;;;;;;;10.68;56.63;99418.53;5052939;28;920;-55
2023/03/06 08:02:42;;;;;;;;;;;;;;;10.93;56.00;99420.22;5054174;28;1946;-56
2023/03/06 08:05:11;;;;;;;;;;;;;;;10.77;54.76;99418.03;5054189;28;812;-55
2023/03/06 08:07:38;;;;;;;;;;;;;;;10.70;55.73;99418.13;5054066;28;1017;-55
2023/03/06 08:10:05;;;;;;;;;;;;;;;10.92;55.13;99424.94;5061250;28;1444;-55
2023/03/06 08:12:32;;;;;;;;;;;;;;;11.11;55.53;99429.03;5074032;28;910;-55
2023/03/06 08:14:58;;;;;;;;;;;;;;;10.82;55.01;99423.09;5073973;28;843;-55
2023/03/06 08:17:24;;;;;;;;;;;;;;;10.82;55.85;99426.66;5073845;28;871;-55
2023/03/06 08:19:50;;;;;;;;;;;;;;;11.00;53.76;99429.19;5073948;28;879;-55
2023/03/06 08:22:17;;;;;;;;;;;;;;;11.13;55.28;99429.41;5073698;28;1913;-55
2023/03/06 08:24:44;;;;;;;;;;;;;;;11.35;53.33;99426.34;5072493;28;875;-55
2023/03/06 08:27:11;;;;;;;;;;;;;;;11.35;54.11;99427.16;5074030;28;872;-55
2023/03/06 08:29:37;;;;;;;;;;;;;;;11.54;54.32;99424.91;5073695;28;903;-56
2023/03/06 08:32:03;;;;;;;;;;;;;;;11.54;53.22;99420.16;5073653;28;844;-56
2023/03/06 08:34:30;;;;;;;;;;;;;;;11.18;55.03;99426.22;5073613;28;874;-56
2023/03/06 08:36:56;;;;;;;;;;;;;;;11.31;54.48;99425.63;5055551;28;1437;-56
2023/03/06 08:39:23;;;;;;;;;;;;;;;11.67;52.18;99427.88;5073528;28;866;-56
2023/03/06 08:41:49;;;;;;;;;;;;;;;11.82;51.61;99424.47;5055455;28;1893;-56
2023/03/06 08:44:16;;;;;;;;;;;;;;;12.04;53.79;99426.91;5073444;28;820;-55
2023/03/06 08:46:42;;;;;;;;;;;;;;;11.65;52.84;99428.31;5073284;28;910;-56
2023/03/06 08:49:09;;;;;;;;;;;;;;;11.43;53.59;99442.44;5073350;28;804;-56
2023/03/06 08:51:35;;;;;;;;;;;;;;;11.69;52.28;99442.84;5073345;28;832;-56
2023/03/06 08:54:02;;;;;;;;;;;;;;;11.85;53.02;99428.38;5073224;28;895;-55
2023/03/06 08:56:30;;;;;;;;;;;;;;;12.23;53.68;99422.66;5073222;28;816;-55
2023/03/06 08:58:58;;;;;;;;;;;;;;;12.66;51.37;99425.38;5073217;28;891;-55
2023/03/06 09:01:26;;;;;;;;;;;;;;;12.33;51.70;99432.75;5073179;28;1960;-55
2023/03/06 09:03:54;;;;;;;;;;;;;;;12.03;54.75;99422.56;5073349;28;847;-55
2023/03/06 09:06:21;;;;;;;;;;;;;;;12.03;53.33;99417.84;5072987;28;835;-55
2023/03/06 09:08:50;;;;;;;;;;;;;;;11.88;53.74;99416.50;5055058;28;1397;-55
2023/03/06 09:11:17;;;;;;;;;;;;;;;11.98;53.50;99410.00;5072585;28;1478;-55
2023/03/06 09:13:43;;;;;;;;;;;;;;;12.31;52.74;99403.88;5072858;28;904;-55
2023/03/06 09:16:10;;;;;;;;;;;;;;;12.10;51.90;99403.06;5072731;28;898;-55
2023/03/06 09:18:37;;;;;;;;;;;;;;;11.90;52.31;99405.00;5072716;28;874;-54
2023/03/06 09:21:03;;;;;;;;;;;;;;;11.75;53.21;99402.44;5073038;28;851;-54
2023/03/06 09:23:30;;;;;;;;;;;;;;;11.80;55.20;99395.66;5054658;28;1910;-54
2023/03/06 09:25:58;;;;;;;;;;;;;;;11.69;53.19;99395.78;5072582;28;825;-54
2023/03/06 09:28:25;;;;;;;;;;;;;;;11.53;54.12;99401.22;5072513;28;857;-55
2023/03/06 09:30:51;;;;;;;;;;;;;;;11.58;54.87;99404.28;5072511;28;879;-54
2023/03/06 09:33:19;;;;;;;;;;;;;;;11.88;55.60;99408.19;5072488;28;856;-54
2023/03/06 09:35:55;;;;;;;;;;;;;;;12.21;50.68;99414.75;5071978;28;867;-54
2023/03/06 09:38:23;;;;;;;;;;;;;;;11.97;49.25;99410.41;5072348;28;824;-54
2023/03/06 10:09:18;;;;;;;;;;;;;;;12.30;46.44;99386.47;5732374;22;1830;-67
2023/03/06 10:11:46;;;;;;;;;;;;;;;12.25;46.92;99390.53;5112415;28;909;-67
2023/03/06 10:14:35;;;;;;;;;;;;;;;12.04;47.18;99386.16;5112512;28;889;-68
2023/03/06 10:17:03;;;;;;;;;;;;;;;12.32;48.41;99381.31;5112245;28;1576;-67
2023/03/06 10:19:38;;;;;;;;;;;;;;;12.44;48.33;99383.44;5112306;28;870;-67
2023/03/06 10:22:18;;;;;;;;;;;;;;;12.48;48.09;99382.59;5111048;28;1910;-69
2023/03/06 10:24:56;;;;;;;;;;;;;;;12.60;48.10;99373.63;5112273;28;819;-68
2023/03/06 10:27:44;;;;;;;;;;;;;;;12.99;47.84;99370.03;5112426;28;1109;-69
2023/03/06 10:30:25;;;;;;;;;;;;;;;12.72;46.74;99369.44;5112390;28;906;-68
2023/03/06 10:33:12;;;;;;;;;;;;;;;12.37;49.27;99364.16;5112119;28;826;-69
2023/03/06 10:35:44;;;;;;;;;;;;;;;12.67;48.93;99365.16;5112226;28;1197;-69
2023/03/06 10:38:16;;;;;;;;;;;;;;;12.92;46.65;99353.56;5111977;28;854;-67
2023/03/06 10:41:04;;;;;;;;;;;;;;;13.05;44.86;99346.13;5112118;28;839;-67
2023/03/06 10:43:32;;;;;;;;;;;;;;;13.16;45.63;99342.34;5111944;28;1992;-67
2023/03/06 10:45:59;;;;;;;;;;;;;;;13.30;44.75;99335.72;5110531;28;1281;-67
2023/03/06 10:48:27;;;;;;;;;;;;;;;13.52;44.60;99330.44;5111468;28;846;-67
2023/03/06 10:51:15;;;;;;;;;;;;;;;13.89;43.02;99324.31;5111903;28;885;-66
2023/03/06 10:54:02;;;;;;;;;;;;;;;14.06;41.07;99313.97;5111903;28;898;-66
2023/03/06 10:56:34;;;;;;;;;;;;;;;14.02;42.33;99312.50;5111670;28;1210;-67
2023/03/06 10:59:07;;;;;;;;;;;;;;;14.00;40.71;99307.38;5111834;28;846;-66
2023/03/06 11:01:34;;;;;;;;;;;;;;;14.07;37.62;99296.06;5111731;28;1957;-65
2023/03/06 11:04:27;;;;;;;;;;;;;;;13.89;37.00;99299.31;5111761;28;919;-66
2023/03/06 11:07:13;;;;;;;;;;;;;;;13.89;38.65;99298.53;5108461;28;1044;-67
2023/03/06 11:09:41;;;;;;;;;;;;;;;13.80;38.07;99290.03;5111587;28;1418;-66
2023/03/06 11:12:27;;;;;;;;;;;;;;;13.77;38.59;99285.38;5111760;28;842;-66
2023/03/06 11:15:06;;;;;;;;;;;;;;;14.13;39.25;99284.41;5111914;28;878;-66
2023/03/06 11:17:35;;;;;;;;;;;;;;;14.19;37.64;99291.78;5111690;28;870;-67
2023/03/06 11:20:18;;;;;;;;;;;;;;;13.88;37.17;99285.84;5111933;28;909;-68
2023/03/06 11:22:51;;;;;;;;;;;;;;;13.98;37.12;99279.25;5111487;28;1901;-66
2023/03/06 11:25:19;;;;;;;;;;;;;;;14.22;36.40;99281.78;5110337;28;1338;-66
2023/03/06 11:27:51;;;;;;;;;;;;;;;14.39;37.11;99286.03;5111689;28;803;-66
2023/03/06 11:30:23;;;;;;;;;;;;;;;14.56;37.13;99275.66;5111624;28;885;-66
2023/03/06 11:32:51;;;;;;;;;;;;;;;14.28;37.11;99275.22;5112005;28;819;-67
2023/03/06 11:35:22;;;;;;;;;;;;;;;14.38;36.51;99281.72;5111527;28;878;-67
2023/03/06 11:37:52;;;;;;;;;;;;;;;14.57;35.00;99274.41;5111408;28;807;-67
2023/03/06 11:40:35;;;;;;;;;;;;;;;14.58;35.10;99275.22;5111506;28;866;-67
2023/03/06 11:43:26;;;;;;;;;;;;;;;14.68;35.39;99263.78;5111406;28;1943;-66
2023/03/06 11:46:03;;;;;;;;;;;;;;;14.56;35.22;99269.31;5111378;28;803;-67
2023/03/06 11:48:55;;;;;;;;;;;;;;;14.47;34.37;99276.28;5111598;28;835;-69
2023/03/06 11:51:25;;;;;;;;;;;;;;;14.36;35.85;99266.66;5108290;28;995;-69
2023/03/06 11:53:52;;;;;;;;;;;;;;;14.50;36.22;99267.03;5111381;28;866;-69
2023/03/06 11:56:19;;;;;;;;;;;;;;;14.73;34.79;99265.22;5111344;28;900;-68
2023/03/06 11:58:52;;;;;;;;;;;;;;;14.86;34.46;99271.56;5111754;28;1190;-69
2023/03/06 12:01:32;;;;;;;;;;;;;;;14.88;34.29;99273.91;5114996;28;826;-69
2023/03/06 12:04:17;;;;;;;;;;;;;;;15.18;34.21;99263.44;5115128;28;818;-69
2023/03/06 12:06:47;;;;;;;;;;;;;;;15.75;33.55;99253.19;5115106;28;822;-69
2023/03/06 12:09:13;;;;;;;;;;;;;;;15.70;32.30;99248.16;5115122;28;1317;-68
2023/03/06 12:11:49;;;;;;;;;;;;;;;15.32;33.52;99251.84;5115091;28;905;-69
2023/03/06 12:14:25;;;;;;;;;;;;;;;15.34;33.67;99240.22;5114729;28;1042;-68
2023/03/06 12:17:10;;;;;;;;;;;;;;;15.13;33.99;99252.84;5114641;28;890;-70
2023/03/06 12:19:36;;;;;;;;;;;;;;;15.48;34.00;99262.03;5114644;28;831;-70
2023/03/06 12:22:12;;;;;;;;;;;;;;;15.62;33.59;99256.00;5114496;28;1929;-69
2023/03/06 12:24:47;;;;;;;;;;;;;;;15.77;32.70;99252.72;5114562;28;862;-69
2023/03/06 12:27:19;;;;;;;;;;;;;;;15.49;32.95;99253.25;5114471;28;834;-70
2023/03/06 12:29:57;;;;;;;;;;;;;;;15.60;32.89;99252.09;5114783;27;819;-69
2023/03/06 12:32:33;;;;;;;;;;;;;;;15.74;32.33;99250.84;5114374;28;881;-69
2023/03/06 12:35:06;;;;;;;;;;;;;;;15.76;33.14;99251.94;5114327;28;944;-69
2023/03/06 12:37:45;;;;;;;;;;;;;;;15.96;33.05;99246.09;5112864;28;1158;-68
2023/03/06 12:40:26;;;;;;;;;;;;;;;16.01;32.44;99242.72;5114255;27;885;-68
2023/03/06 12:43:03;;;;;;;;;;;;;;;15.87;32.72;99254.38;5114343;28;1878;-69
2023/03/06 12:45:31;;;;;;;;;;;;;;;16.25;33.66;99256.19;5114318;27;835;-69
2023/03/06 12:47:58;;;;;;;;;;;;;;;16.24;31.98;99247.06;5114317;28;827;-70
2023/03/06 12:50:29;;;;;;;;;;;;;;;16.25;32.37;99242.25;5114046;28;862;-72
2023/03/06 12:53:00;;;;;;;;;;;;;;;16.53;32.36;99238.38;5113917;28;854;-71
2023/03/06 12:55:39;;;;;;;;;;;;;;;16.58;31.58;99237.03;5113993;28;885;-70
2023/03/06 12:58:24;;;;;;;;;;;;;;;16.52;31.63;99245.22;5112578;28;1258;-69
2023/03/06 13:00:57;;;;;;;;;;;;;;;16.18;31.24;99245.31;5113953;28;886;-71
2023/03/06 13:03:29;;;;;;;;;;;;;;;16.29;32.08;99242.91;5113650;28;1955;-70
2023/03/06 13:06:14;;;;;;;;;;;;;;;16.64;31.88;99238.00;5113902;27;803;-70
2023/03/06 13:08:58;;;;;;;;;;;;;;;17.22;31.49;99238.50;5113808;28;907;-71
2023/03/06 13:11:30;;;;;;;;;;;;;;;17.45;30.57;99226.00;5072275;28;851;-71
2023/03/06 13:13:57;;;;;;;;;;;;;;;17.12;30.56;99243.31;5088727;28;1242;-70
2023/03/06 13:16:25;;;;;;;;;;;;;;;16.84;30.36;99234.84;5073237;28;858;-70
2023/03/06 13:18:54;;;;;;;;;;;;;;;17.22;30.13;99238.50;5073123;28;866;-70
2023/03/06 13:21:38;;;;;;;;;;;;;;;17.46;30.40;99227.56;5072741;28;851;-70
2023/03/06 13:24:13;;;;;;;;;;;;;;;17.19;29.66;99222.69;5072689;28;886;-69
2023/03/06 13:26:40;;;;;;;;;;;;;;;16.96;30.61;99224.78;5072991;28;840;-70
2023/03/06 13:29:24;;;;;;;;;;;;;;;16.65;30.65;99222.03;5071312;28;1298;-70
2023/03/06 13:31:56;;;;;;;;;;;;;;;16.74;31.15;99228.41;5072544;28;855;-70
2023/03/06 13:34:38;;;;;;;;;;;;;;;16.82;31.07;99225.38;5072599;28;851;-70
2023/03/06 13:37:18;;;;;;;;;;;;;;;16.54;30.81;99226.00;5072622;28;819;-70
2023/03/06 13:40:00;;;;;;;;;;;;;;;16.40;30.90;99217.41;5072460;28;831;-68
2023/03/06 13:42:27;;;;;;;;;;;;;;;16.34;31.09;99214.41;5072566;28;1870;-71
2023/03/06 13:44:55;;;;;;;;;;;;;;;16.32;31.09;99219.66;5072364;28;862;-70
2023/03/06 13:47:50;;;;;;;;;;;;;;;16.33;31.56;99212.88;5072264;28;875;-70
2023/03/06 13:50:25;;;;;;;;;;;;;;;16.20;31.36;99218.53;5071363;28;1184;-70
2023/03/06 13:52:52;;;;;;;;;;;;;;;16.41;31.26;99219.75;5072202;28;854;-71